sensor_id;sensor_type;location;lat;lon;timestamp;P1;durP1;ratioP1;P2;durP2;ratioP2
62574;SDS011;70119;45.638;11.714;2023-06-19T00:00:31;6.75;;;4.57;;
62574;SDS011;70119;45.638;11.714;2023-06-19T00:02:57;7.40;;;4.85;;
62574;SDS011;70119;45.638;11.714;2023-06-19T00:05:24;9.93;;;5.55;;
62574;SDS011;70119;45.638;11.714;2023-06-19T00:07:50;7.60;;;5.25;;
62574;SDS011;70119;45.638;11.714;2023-06-19T00:10:16;7.03;;;5.38;;
62574;SDS011;70119;45.638;11.714;2023-06-19T00:12:43;7.35;;;4.97;;
62574;SDS011;70119;45.638;11.714;2023-06-19T00:15:09;7.75;;;5.03;;
62574;SDS011;70119;45.638;11.714;2023-06-19T00:17:35;7.45;;;5.32;;
62574;SDS011;70119;45.638;11.714;2023-06-19T00:20:04;6.60;;;4.75;;
62574;SDS011;70119;45.638;11.714;2023-06-19T00:22:31;6.70;;;4.95;;
62574;SDS011;70119;45.638;11.714;2023-06-19T00:24:57;6.57;;;4.88;;
62574;SDS011;70119;45.638;11.714;2023-06-19T00:27:23;7.25;;;5.30;;
62574;SDS011;70119;45.638;11.714;2023-06-19T00:29:52;8.00;;;4.90;;
62574;SDS011;70119;45.638;11.714;2023-06-19T00:32:18;6.70;;;4.88;;
62574;SDS011;70119;45.638;11.714;2023-06-19T00:34:44;7.93;;;5.07;;
62574;SDS011;70119;45.638;11.714;2023-06-19T00:37:10;8.70;;;5.07;;
62574;SDS011;70119;45.638;11.714;2023-06-19T00:39:38;7.47;;;5.07;;
62574;SDS011;70119;45.638;11.714;2023-06-19T00:42:07;6.97;;;4.80;;
62574;SDS011;70119;45.638;11.714;2023-06-19T00:44:33;6.43;;;4.75;;
62574;SDS011;70119;45.638;11.714;2023-06-19T00:47:00;6.45;;;4.93;;
62574;SDS011;70119;45.638;11.714;2023-06-19T00:49:28;7.15;;;4.93;;
62574;SDS011;70119;45.638;11.714;2023-06-19T00:51:55;6.65;;;4.97;;
62574;SDS011;70119;45.638;11.714;2023-06-19T00:54:21;5.97;;;4.72;;
62574;SDS011;70119;45.638;11.714;2023-06-19T00:56:47;7.05;;;4.70;;
62574;SDS011;70119;45.638;11.714;2023-06-19T00:59:17;6.40;;;4.45;;
62574;SDS011;70119;45.638;11.714;2023-06-19T01:01:45;6.35;;;4.50;;
62574;SDS011;70119;45.638;11.714;2023-06-19T01:04:12;6.35;;;4.70;;
62574;SDS011;70119;45.638;11.714;2023-06-19T01:07:31;8.85;;;4.97;;
62574;SDS011;70119;45.638;11.714;2023-06-19T01:09:51;6.97;;;4.60;;
62574;SDS011;70119;45.638;11.714;2023-06-19T01:12:24;6.95;;;5.07;;
62574;SDS011;70119;45.638;11.714;2023-06-19T01:14:58;7.55;;;4.75;;
62574;SDS011;70119;45.638;11.714;2023-06-19T01:17:28;12.15;;;4.43;;
62574;SDS011;70119;45.638;11.714;2023-06-19T01:19:58;6.55;;;4.68;;
62574;SDS011;70119;45.638;11.714;2023-06-19T01:22:25;6.30;;;4.90;;
62574;SDS011;70119;45.638;11.714;2023-06-19T01:24:52;7.72;;;5.00;;
62574;SDS011;70119;45.638;11.714;2023-06-19T01:27:18;6.97;;;4.63;;
62574;SDS011;70119;45.638;11.714;2023-06-19T01:29:44;6.63;;;4.95;;
62574;SDS011;70119;45.638;11.714;2023-06-19T01:32:12;7.38;;;4.90;;
62574;SDS011;70119;45.638;11.714;2023-06-19T01:34:43;6.03;;;4.65;;
62574;SDS011;70119;45.638;11.714;2023-06-19T01:37:09;6.13;;;4.60;;
62574;SDS011;70119;45.638;11.714;2023-06-19T01:39:36;6.18;;;4.45;;
62574;SDS011;70119;45.638;11.714;2023-06-19T01:42:03;6.03;;;4.65;;
62574;SDS011;70119;45.638;11.714;2023-06-19T01:44:31;7.55;;;4.60;;
62574;SDS011;70119;45.638;11.714;2023-06-19T01:46:58;6.57;;;4.50;;
62574;SDS011;70119;45.638;11.714;2023-06-19T01:49:24;6.15;;;4.88;;
62574;SDS011;70119;45.638;11.714;2023-06-19T01:51:50;6.50;;;4.63;;
62574;SDS011;70119;45.638;11.714;2023-06-19T01:54:16;6.30;;;4.55;;
62574;SDS011;70119;45.638;11.714;2023-06-19T01:56:42;5.78;;;4.68;;
62574;SDS011;70119;45.638;11.714;2023-06-19T01:59:08;5.90;;;4.53;;
62574;SDS011;70119;45.638;11.714;2023-06-19T02:01:34;6.38;;;4.72;;
62574;SDS011;70119;45.638;11.714;2023-06-19T02:04:01;8.10;;;4.78;;
62574;SDS011;70119;45.638;11.714;2023-06-19T02:06:27;6.15;;;4.65;;
62574;SDS011;70119;45.638;11.714;2023-06-19T02:08:55;7.05;;;4.50;;
62574;SDS011;70119;45.638;11.714;2023-06-19T02:11:21;6.45;;;4.72;;
62574;SDS011;70119;45.638;11.714;2023-06-19T02:13:47;6.32;;;4.90;;
62574;SDS011;70119;45.638;11.714;2023-06-19T02:16:14;6.95;;;4.80;;
62574;SDS011;70119;45.638;11.714;2023-06-19T02:18:39;6.47;;;4.57;;
62574;SDS011;70119;45.638;11.714;2023-06-19T02:21:05;5.97;;;4.75;;
62574;SDS011;70119;45.638;11.714;2023-06-19T02:23:31;7.00;;;4.65;;
62574;SDS011;70119;45.638;11.714;2023-06-19T02:25:57;5.90;;;4.50;;
62574;SDS011;70119;45.638;11.714;2023-06-19T02:28:23;6.90;;;4.50;;
62574;SDS011;70119;45.638;11.714;2023-06-19T02:30:49;7.65;;;4.20;;
62574;SDS011;70119;45.638;11.714;2023-06-19T02:33:16;5.68;;;4.22;;
62574;SDS011;70119;45.638;11.714;2023-06-19T02:35:42;6.47;;;4.65;;
62574;SDS011;70119;45.638;11.714;2023-06-19T02:38:10;6.13;;;4.18;;
62574;SDS011;70119;45.638;11.714;2023-06-19T02:40:38;6.80;;;4.65;;
62574;SDS011;70119;45.638;11.714;2023-06-19T02:43:04;6.90;;;4.97;;
62574;SDS011;70119;45.638;11.714;2023-06-19T02:45:30;7.22;;;4.75;;
62574;SDS011;70119;45.638;11.714;2023-06-19T02:47:56;6.45;;;4.78;;
62574;SDS011;70119;45.638;11.714;2023-06-19T02:50:22;7.28;;;4.75;;
62574;SDS011;70119;45.638;11.714;2023-06-19T02:52:48;8.13;;;5.00;;
62574;SDS011;70119;45.638;11.714;2023-06-19T02:55:14;6.80;;;4.65;;
62574;SDS011;70119;45.638;11.714;2023-06-19T02:57:40;6.90;;;4.68;;
62574;SDS011;70119;45.638;11.714;2023-06-19T03:00:06;5.80;;;4.55;;
62574;SDS011;70119;45.638;11.714;2023-06-19T03:02:34;6.22;;;4.57;;
62574;SDS011;70119;45.638;11.714;2023-06-19T03:05:00;6.50;;;4.72;;
62574;SDS011;70119;45.638;11.714;2023-06-19T03:07:27;7.05;;;4.63;;
62574;SDS011;70119;45.638;11.714;2023-06-19T03:09:54;7.00;;;4.63;;
62574;SDS011;70119;45.638;11.714;2023-06-19T03:12:20;5.93;;;4.43;;
62574;SDS011;70119;45.638;11.714;2023-06-19T03:14:46;5.78;;;4.38;;
62574;SDS011;70119;45.638;11.714;2023-06-19T03:17:12;6.05;;;4.40;;
62574;SDS011;70119;45.638;11.714;2023-06-19T03:19:38;6.20;;;4.63;;
62574;SDS011;70119;45.638;11.714;2023-06-19T03:22:04;6.35;;;4.50;;
62574;SDS011;70119;45.638;11.714;2023-06-19T03:24:30;5.72;;;4.60;;
62574;SDS011;70119;45.638;11.714;2023-06-19T03:26:56;7.25;;;4.93;;
62574;SDS011;70119;45.638;11.714;2023-06-19T03:29:22;5.90;;;4.47;;
62574;SDS011;70119;45.638;11.714;2023-06-19T03:31:48;6.40;;;4.57;;
62574;SDS011;70119;45.638;11.714;2023-06-19T03:34:14;6.35;;;4.35;;
62574;SDS011;70119;45.638;11.714;2023-06-19T03:36:40;6.20;;;4.70;;
62574;SDS011;70119;45.638;11.714;2023-06-19T03:39:06;7.55;;;4.90;;
62574;SDS011;70119;45.638;11.714;2023-06-19T03:41:32;6.60;;;5.00;;
62574;SDS011;70119;45.638;11.714;2023-06-19T03:43:58;6.95;;;5.03;;
62574;SDS011;70119;45.638;11.714;2023-06-19T03:46:24;6.25;;;4.80;;
62574;SDS011;70119;45.638;11.714;2023-06-19T03:48:50;6.63;;;4.95;;
62574;SDS011;70119;45.638;11.714;2023-06-19T03:51:16;6.88;;;5.40;;
62574;SDS011;70119;45.638;11.714;2023-06-19T03:53:41;7.53;;;5.45;;
62574;SDS011;70119;45.638;11.714;2023-06-19T03:56:07;6.93;;;5.10;;
62574;SDS011;70119;45.638;11.714;2023-06-19T03:58:33;7.40;;;4.95;;
62574;SDS011;70119;45.638;11.714;2023-06-19T04:00:59;6.10;;;4.63;;
62574;SDS011;70119;45.638;11.714;2023-06-19T04:03:26;7.25;;;5.03;;
62574;SDS011;70119;45.638;11.714;2023-06-19T04:05:52;7.28;;;4.95;;
62574;SDS011;70119;45.638;11.714;2023-06-19T04:08:17;6.55;;;4.60;;
62574;SDS011;70119;45.638;11.714;2023-06-19T04:10:43;6.30;;;4.60;;
62574;SDS011;70119;45.638;11.714;2023-06-19T04:13:09;6.82;;;4.97;;
62574;SDS011;70119;45.638;11.714;2023-06-19T04:15:36;5.63;;;4.70;;
62574;SDS011;70119;45.638;11.714;2023-06-19T04:18:02;6.07;;;4.50;;
62574;SDS011;70119;45.638;11.714;2023-06-19T04:20:28;7.43;;;5.07;;
62574;SDS011;70119;45.638;11.714;2023-06-19T04:22:54;6.18;;;4.65;;
62574;SDS011;70119;45.638;11.714;2023-06-19T04:25:20;6.68;;;4.68;;
62574;SDS011;70119;45.638;11.714;2023-06-19T04:27:46;6.18;;;4.53;;
62574;SDS011;70119;45.638;11.714;2023-06-19T04:30:11;6.07;;;4.90;;
62574;SDS011;70119;45.638;11.714;2023-06-19T04:32:37;6.07;;;4.78;;
62574;SDS011;70119;45.638;11.714;2023-06-19T04:35:09;5.63;;;4.20;;
62574;SDS011;70119;45.638;11.714;2023-06-19T04:37:35;6.05;;;4.40;;
62574;SDS011;70119;45.638;11.714;2023-06-19T04:40:01;7.47;;;5.60;;
62574;SDS011;70119;45.638;11.714;2023-06-19T04:42:28;7.00;;;5.10;;
62574;SDS011;70119;45.638;11.714;2023-06-19T04:44:54;10.60;;;6.18;;
62574;SDS011;70119;45.638;11.714;2023-06-19T04:47:22;8.43;;;6.05;;
62574;SDS011;70119;45.638;11.714;2023-06-19T04:49:49;7.70;;;6.18;;
62574;SDS011;70119;45.638;11.714;2023-06-19T04:52:14;8.05;;;6.20;;
62574;SDS011;70119;45.638;11.714;2023-06-19T04:54:40;10.18;;;7.30;;
62574;SDS011;70119;45.638;11.714;2023-06-19T04:57:06;8.65;;;6.90;;
62574;SDS011;70119;45.638;11.714;2023-06-19T04:59:32;8.77;;;6.93;;
62574;SDS011;70119;45.638;11.714;2023-06-19T05:01:58;9.10;;;7.03;;
62574;SDS011;70119;45.638;11.714;2023-06-19T05:04:25;9.73;;;6.78;;
62574;SDS011;70119;45.638;11.714;2023-06-19T05:06:51;9.43;;;6.95;;
62574;SDS011;70119;45.638;11.714;2023-06-19T05:09:17;7.93;;;6.90;;
62574;SDS011;70119;45.638;11.714;2023-06-19T05:11:43;8.85;;;7.07;;
62574;SDS011;70119;45.638;11.714;2023-06-19T05:14:09;8.85;;;7.00;;
62574;SDS011;70119;45.638;11.714;2023-06-19T05:16:36;9.85;;;7.25;;
62574;SDS011;70119;45.638;11.714;2023-06-19T05:19:02;10.60;;;7.05;;
62574;SDS011;70119;45.638;11.714;2023-06-19T05:21:28;9.60;;;7.10;;
62574;SDS011;70119;45.638;11.714;2023-06-19T05:23:54;12.40;;;7.47;;
62574;SDS011;70119;45.638;11.714;2023-06-19T05:26:19;10.52;;;7.35;;
62574;SDS011;70119;45.638;11.714;2023-06-19T05:28:46;17.13;;;8.27;;
62574;SDS011;70119;45.638;11.714;2023-06-19T05:31:12;11.40;;;7.75;;
62574;SDS011;70119;45.638;11.714;2023-06-19T05:33:38;11.25;;;7.90;;
62574;SDS011;70119;45.638;11.714;2023-06-19T05:36:04;8.90;;;6.65;;
62574;SDS011;70119;45.638;11.714;2023-06-19T05:38:30;11.07;;;7.38;;
62574;SDS011;70119;45.638;11.714;2023-06-19T05:40:59;10.48;;;7.30;;
62574;SDS011;70119;45.638;11.714;2023-06-19T05:43:25;10.60;;;7.55;;
62574;SDS011;70119;45.638;11.714;2023-06-19T05:45:52;9.15;;;7.30;;
62574;SDS011;70119;45.638;11.714;2023-06-19T05:48:21;10.10;;;7.07;;
62574;SDS011;70119;45.638;11.714;2023-06-19T05:50:47;11.30;;;7.70;;
62574;SDS011;70119;45.638;11.714;2023-06-19T05:53:13;12.18;;;7.70;;
62574;SDS011;70119;45.638;11.714;2023-06-19T05:55:39;9.85;;;7.15;;
62574;SDS011;70119;45.638;11.714;2023-06-19T05:58:05;11.25;;;7.25;;
62574;SDS011;70119;45.638;11.714;2023-06-19T06:00:31;9.32;;;7.00;;
62574;SDS011;70119;45.638;11.714;2023-06-19T06:02:57;11.20;;;7.22;;
62574;SDS011;70119;45.638;11.714;2023-06-19T06:05:27;12.27;;;7.72;;
62574;SDS011;70119;45.638;11.714;2023-06-19T06:07:56;8.05;;;6.90;;
62574;SDS011;70119;45.638;11.714;2023-06-19T06:10:23;8.20;;;7.00;;
62574;SDS011;70119;45.638;11.714;2023-06-19T06:12:50;9.65;;;7.40;;
62574;SDS011;70119;45.638;11.714;2023-06-19T06:15:16;8.15;;;6.60;;
62574;SDS011;70119;45.638;11.714;2023-06-19T06:17:42;8.07;;;6.50;;
62574;SDS011;70119;45.638;11.714;2023-06-19T06:20:09;9.05;;;6.25;;
62574;SDS011;70119;45.638;11.714;2023-06-19T06:22:40;10.27;;;6.53;;
62574;SDS011;70119;45.638;11.714;2023-06-19T06:25:07;7.63;;;5.53;;
62574;SDS011;70119;45.638;11.714;2023-06-19T06:27:35;9.90;;;6.45;;
62574;SDS011;70119;45.638;11.714;2023-06-19T06:30:02;7.72;;;5.65;;
62574;SDS011;70119;45.638;11.714;2023-06-19T06:32:28;9.18;;;6.18;;
62574;SDS011;70119;45.638;11.714;2023-06-19T06:34:56;7.40;;;5.40;;
62574;SDS011;70119;45.638;11.714;2023-06-19T06:37:23;8.18;;;5.93;;
62574;SDS011;70119;45.638;11.714;2023-06-19T06:39:50;10.05;;;6.00;;
62574;SDS011;70119;45.638;11.714;2023-06-19T06:42:16;7.95;;;5.65;;
62574;SDS011;70119;45.638;11.714;2023-06-19T06:44:43;9.95;;;5.57;;
62574;SDS011;70119;45.638;11.714;2023-06-19T06:47:09;11.13;;;5.57;;
62574;SDS011;70119;45.638;11.714;2023-06-19T06:49:36;7.20;;;5.20;;
62574;SDS011;70119;45.638;11.714;2023-06-19T06:52:05;8.23;;;5.50;;
62574;SDS011;70119;45.638;11.714;2023-06-19T06:54:32;9.18;;;5.55;;
62574;SDS011;70119;45.638;11.714;2023-06-19T06:56:58;6.85;;;5.05;;
62574;SDS011;70119;45.638;11.714;2023-06-19T06:59:25;8.38;;;5.32;;
62574;SDS011;70119;45.638;11.714;2023-06-19T07:01:54;8.82;;;5.47;;
62574;SDS011;70119;45.638;11.714;2023-06-19T07:04:21;8.73;;;5.45;;
62574;SDS011;70119;45.638;11.714;2023-06-19T07:06:48;8.15;;;5.32;;
62574;SDS011;70119;45.638;11.714;2023-06-19T07:09:14;11.27;;;5.30;;
62574;SDS011;70119;45.638;11.714;2023-06-19T07:11:43;7.72;;;5.20;;
62574;SDS011;70119;45.638;11.714;2023-06-19T07:14:09;8.20;;;5.20;;
62574;SDS011;70119;45.638;11.714;2023-06-19T07:16:35;10.85;;;5.70;;
62574;SDS011;70119;45.638;11.714;2023-06-19T07:19:01;11.07;;;5.32;;
62574;SDS011;70119;45.638;11.714;2023-06-19T07:21:27;10.07;;;5.88;;
62574;SDS011;70119;45.638;11.714;2023-06-19T07:23:54;8.43;;;5.38;;
62574;SDS011;70119;45.638;11.714;2023-06-19T07:26:20;7.88;;;5.47;;
62574;SDS011;70119;45.638;11.714;2023-06-19T07:28:46;9.27;;;5.45;;
62574;SDS011;70119;45.638;11.714;2023-06-19T07:31:13;7.35;;;5.50;;
62574;SDS011;70119;45.638;11.714;2023-06-19T07:33:39;8.45;;;5.70;;
62574;SDS011;70119;45.638;11.714;2023-06-19T07:36:05;7.90;;;5.07;;
62574;SDS011;70119;45.638;11.714;2023-06-19T07:38:31;8.65;;;5.15;;
62574;SDS011;70119;45.638;11.714;2023-06-19T07:40:58;8.00;;;5.20;;
62574;SDS011;70119;45.638;11.714;2023-06-19T07:43:24;7.93;;;5.10;;
62574;SDS011;70119;45.638;11.714;2023-06-19T07:45:50;12.57;;;5.65;;
62574;SDS011;70119;45.638;11.714;2023-06-19T07:48:16;8.35;;;5.10;;
62574;SDS011;70119;45.638;11.714;2023-06-19T07:50:42;9.02;;;5.13;;
62574;SDS011;70119;45.638;11.714;2023-06-19T07:53:08;7.57;;;5.38;;
62574;SDS011;70119;45.638;11.714;2023-06-19T07:55:34;8.10;;;4.93;;
62574;SDS011;70119;45.638;11.714;2023-06-19T07:58:00;7.13;;;5.22;;
62574;SDS011;70119;45.638;11.714;2023-06-19T08:00:27;10.32;;;5.13;;
62574;SDS011;70119;45.638;11.714;2023-06-19T08:02:53;8.27;;;5.38;;
62574;SDS011;70119;45.638;11.714;2023-06-19T08:05:19;8.38;;;5.53;;
62574;SDS011;70119;45.638;11.714;2023-06-19T08:07:45;8.10;;;5.40;;
62574;SDS011;70119;45.638;11.714;2023-06-19T08:10:11;6.72;;;4.97;;
62574;SDS011;70119;45.638;11.714;2023-06-19T08:12:37;8.73;;;5.07;;
62574;SDS011;70119;45.638;11.714;2023-06-19T08:15:03;7.40;;;5.32;;
62574;SDS011;70119;45.638;11.714;2023-06-19T08:17:30;6.90;;;5.07;;
62574;SDS011;70119;45.638;11.714;2023-06-19T08:19:56;7.47;;;5.32;;
62574;SDS011;70119;45.638;11.714;2023-06-19T08:22:22;8.65;;;5.05;;
62574;SDS011;70119;45.638;11.714;2023-06-19T08:24:50;7.53;;;5.22;;
62574;SDS011;70119;45.638;11.714;2023-06-19T08:27:16;9.13;;;5.07;;
62574;SDS011;70119;45.638;11.714;2023-06-19T08:29:42;7.60;;;5.10;;
62574;SDS011;70119;45.638;11.714;2023-06-19T08:32:08;6.35;;;5.00;;
62574;SDS011;70119;45.638;11.714;2023-06-19T08:34:35;7.53;;;5.28;;
62574;SDS011;70119;45.638;11.714;2023-06-19T08:37:02;6.78;;;4.80;;
62574;SDS011;70119;45.638;11.714;2023-06-19T08:39:29;6.38;;;4.85;;
62574;SDS011;70119;45.638;11.714;2023-06-19T08:41:55;6.60;;;5.00;;
62574;SDS011;70119;45.638;11.714;2023-06-19T08:44:21;8.40;;;5.38;;
62574;SDS011;70119;45.638;11.714;2023-06-19T08:46:47;8.18;;;5.15;;
62574;SDS011;70119;45.638;11.714;2023-06-19T08:49:13;7.82;;;4.75;;
62574;SDS011;70119;45.638;11.714;2023-06-19T08:51:42;6.95;;;4.68;;
62574;SDS011;70119;45.638;11.714;2023-06-19T08:54:08;7.93;;;4.90;;
62574;SDS011;70119;45.638;11.714;2023-06-19T08:56:35;8.20;;;4.90;;
62574;SDS011;70119;45.638;11.714;2023-06-19T08:59:12;7.30;;;4.90;;
62574;SDS011;70119;45.638;11.714;2023-06-19T09:01:40;6.60;;;4.90;;
62574;SDS011;70119;45.638;11.714;2023-06-19T09:04:18;7.47;;;4.78;;
62574;SDS011;70119;45.638;11.714;2023-06-19T09:06:49;6.30;;;4.68;;
62574;SDS011;70119;45.638;11.714;2023-06-19T09:09:17;7.63;;;5.00;;
62574;SDS011;70119;45.638;11.714;2023-06-19T09:12:03;5.93;;;4.63;;
62574;SDS011;70119;45.638;11.714;2023-06-19T09:14:33;7.22;;;4.90;;
62574;SDS011;70119;45.638;11.714;2023-06-19T09:17:01;6.90;;;4.60;;
62574;SDS011;70119;45.638;11.714;2023-06-19T09:19:32;6.28;;;4.78;;
62574;SDS011;70119;45.638;11.714;2023-06-19T09:22:02;7.88;;;4.95;;
62574;SDS011;70119;45.638;11.714;2023-06-19T09:24:33;7.15;;;4.95;;
62574;SDS011;70119;45.638;11.714;2023-06-19T09:27:07;7.78;;;4.60;;
62574;SDS011;70119;45.638;11.714;2023-06-19T09:29:35;8.07;;;5.10;;
62574;SDS011;70119;45.638;11.714;2023-06-19T09:32:24;6.78;;;4.65;;
62574;SDS011;70119;45.638;11.714;2023-06-19T09:34:52;6.28;;;4.70;;
62574;SDS011;70119;45.638;11.714;2023-06-19T09:37:25;6.90;;;4.50;;
62574;SDS011;70119;45.638;11.714;2023-06-19T09:39:55;6.57;;;4.63;;
62574;SDS011;70119;45.638;11.714;2023-06-19T09:42:28;6.55;;;4.75;;
62574;SDS011;70119;45.638;11.714;2023-06-19T09:44:55;6.05;;;4.63;;
62574;SDS011;70119;45.638;11.714;2023-06-19T09:47:45;6.53;;;4.65;;
62574;SDS011;70119;45.638;11.714;2023-06-19T09:50:13;7.82;;;4.60;;
62574;SDS011;70119;45.638;11.714;2023-06-19T09:52:40;6.88;;;4.80;;
62574;SDS011;70119;45.638;11.714;2023-06-19T09:55:07;5.45;;;4.50;;
62574;SDS011;70119;45.638;11.714;2023-06-19T09:57:35;7.10;;;5.00;;
62574;SDS011;70119;45.638;11.714;2023-06-19T10:00:05;7.55;;;4.43;;
62574;SDS011;70119;45.638;11.714;2023-06-19T10:02:42;6.53;;;4.80;;
62574;SDS011;70119;45.638;11.714;2023-06-19T10:05:09;6.70;;;4.70;;
62574;SDS011;70119;45.638;11.714;2023-06-19T10:07:38;6.07;;;4.47;;
62574;SDS011;70119;45.638;11.714;2023-06-19T10:10:09;6.75;;;4.60;;
62574;SDS011;70119;45.638;11.714;2023-06-19T10:15:15;6.45;;;4.50;;
62574;SDS011;70119;45.638;11.714;2023-06-19T10:17:50;5.72;;;4.40;;
62574;SDS011;70119;45.638;11.714;2023-06-19T10:20:27;7.03;;;4.60;;
62574;SDS011;70119;45.638;11.714;2023-06-19T10:22:58;6.10;;;4.28;;
62574;SDS011;70119;45.638;11.714;2023-06-19T10:25:32;5.60;;;4.30;;
62574;SDS011;70119;45.638;11.714;2023-06-19T10:28:03;6.45;;;4.30;;
62574;SDS011;70119;45.638;11.714;2023-06-19T10:30:40;5.85;;;4.43;;
62574;SDS011;70119;45.638;11.714;2023-06-19T10:33:06;5.32;;;4.20;;
62574;SDS011;70119;45.638;11.714;2023-06-19T10:35:39;6.10;;;4.10;;
62574;SDS011;70119;45.638;11.714;2023-06-19T10:38:08;6.28;;;4.50;;
62574;SDS011;70119;45.638;11.714;2023-06-19T10:40:36;7.15;;;4.40;;
62574;SDS011;70119;45.638;11.714;2023-06-19T10:43:03;5.38;;;4.13;;
62574;SDS011;70119;45.638;11.714;2023-06-19T10:45:29;5.95;;;4.10;;
62574;SDS011;70119;45.638;11.714;2023-06-19T10:47:56;7.65;;;4.22;;
62574;SDS011;70119;45.638;11.714;2023-06-19T10:50:24;6.97;;;4.47;;
62574;SDS011;70119;45.638;11.714;2023-06-19T10:52:52;7.05;;;4.18;;
62574;SDS011;70119;45.638;11.714;2023-06-19T10:55:20;4.85;;;4.00;;
62574;SDS011;70119;45.638;11.714;2023-06-19T10:57:47;6.85;;;4.10;;
62574;SDS011;70119;45.638;11.714;2023-06-19T11:00:24;5.50;;;4.05;;
62574;SDS011;70119;45.638;11.714;2023-06-19T11:02:54;6.35;;;4.15;;
62574;SDS011;70119;45.638;11.714;2023-06-19T11:05:21;5.90;;;4.40;;
62574;SDS011;70119;45.638;11.714;2023-06-19T11:07:55;5.68;;;4.35;;
62574;SDS011;70119;45.638;11.714;2023-06-19T11:10:25;5.45;;;4.00;;
62574;SDS011;70119;45.638;11.714;2023-06-19T11:12:53;4.70;;;3.80;;
62574;SDS011;70119;45.638;11.714;2023-06-19T11:15:27;6.38;;;4.05;;
62574;SDS011;70119;45.638;11.714;2023-06-19T11:17:57;6.32;;;4.30;;
62574;SDS011;70119;45.638;11.714;2023-06-19T11:20:25;5.72;;;4.18;;
62574;SDS011;70119;45.638;11.714;2023-06-19T11:22:55;5.25;;;3.90;;
62574;SDS011;70119;45.638;11.714;2023-06-19T11:25:22;5.85;;;4.15;;
62574;SDS011;70119;45.638;11.714;2023-06-19T11:27:48;5.00;;;3.83;;
62574;SDS011;70119;45.638;11.714;2023-06-19T11:30:17;5.38;;;4.00;;
62574;SDS011;70119;45.638;11.714;2023-06-19T11:32:47;5.32;;;4.00;;
62574;SDS011;70119;45.638;11.714;2023-06-19T11:35:15;5.20;;;3.90;;
62574;SDS011;70119;45.638;11.714;2023-06-19T11:37:42;5.38;;;4.00;;
62574;SDS011;70119;45.638;11.714;2023-06-19T11:40:11;4.57;;;3.85;;
62574;SDS011;70119;45.638;11.714;2023-06-19T11:42:46;5.75;;;4.18;;
62574;SDS011;70119;45.638;11.714;2023-06-19T11:45:13;5.45;;;3.83;;
62574;SDS011;70119;45.638;11.714;2023-06-19T11:47:39;5.18;;;4.05;;
62574;SDS011;70119;45.638;11.714;2023-06-19T11:50:05;5.82;;;4.07;;
62574;SDS011;70119;45.638;11.714;2023-06-19T11:52:32;5.72;;;4.15;;
62574;SDS011;70119;45.638;11.714;2023-06-19T11:54:59;5.03;;;3.67;;
62574;SDS011;70119;45.638;11.714;2023-06-19T11:57:26;5.43;;;4.00;;
62574;SDS011;70119;45.638;11.714;2023-06-19T11:59:52;7.03;;;4.18;;
62574;SDS011;70119;45.638;11.714;2023-06-19T12:02:19;6.32;;;4.30;;
62574;SDS011;70119;45.638;11.714;2023-06-19T12:04:45;5.88;;;4.03;;
62574;SDS011;70119;45.638;11.714;2023-06-19T12:07:11;5.60;;;4.22;;
62574;SDS011;70119;45.638;11.714;2023-06-19T12:09:37;6.07;;;4.32;;
62574;SDS011;70119;45.638;11.714;2023-06-19T12:12:04;5.50;;;4.13;;
62574;SDS011;70119;45.638;11.714;2023-06-19T12:14:31;5.60;;;3.92;;
62574;SDS011;70119;45.638;11.714;2023-06-19T12:16:57;5.85;;;4.28;;
62574;SDS011;70119;45.638;11.714;2023-06-19T12:19:24;5.72;;;4.20;;
62574;SDS011;70119;45.638;11.714;2023-06-19T12:21:53;6.10;;;3.90;;
62574;SDS011;70119;45.638;11.714;2023-06-19T12:24:19;5.47;;;3.97;;
62574;SDS011;70119;45.638;11.714;2023-06-19T12:26:45;6.10;;;4.30;;
62574;SDS011;70119;45.638;11.714;2023-06-19T12:29:11;5.45;;;3.80;;
62574;SDS011;70119;45.638;11.714;2023-06-19T12:31:37;5.65;;;4.13;;
62574;SDS011;70119;45.638;11.714;2023-06-19T12:34:04;5.97;;;3.90;;
62574;SDS011;70119;45.638;11.714;2023-06-19T12:36:32;5.38;;;3.90;;
62574;SDS011;70119;45.638;11.714;2023-06-19T12:38:58;5.65;;;3.90;;
62574;SDS011;70119;45.638;11.714;2023-06-19T12:41:25;5.40;;;3.90;;
62574;SDS011;70119;45.638;11.714;2023-06-19T12:43:51;5.55;;;3.90;;
62574;SDS011;70119;45.638;11.714;2023-06-19T12:46:17;4.82;;;3.72;;
62574;SDS011;70119;45.638;11.714;2023-06-19T12:48:43;4.60;;;3.53;;
62574;SDS011;70119;45.638;11.714;2023-06-19T12:51:10;4.90;;;3.80;;
62574;SDS011;70119;45.638;11.714;2023-06-19T12:53:36;5.57;;;3.95;;
62574;SDS011;70119;45.638;11.714;2023-06-19T12:56:02;5.35;;;3.67;;
62574;SDS011;70119;45.638;11.714;2023-06-19T12:58:28;5.78;;;4.13;;
62574;SDS011;70119;45.638;11.714;2023-06-19T13:00:54;4.28;;;3.60;;
62574;SDS011;70119;45.638;11.714;2023-06-19T13:03:20;5.38;;;3.97;;
62574;SDS011;70119;45.638;11.714;2023-06-19T13:05:46;4.43;;;3.33;;
62574;SDS011;70119;45.638;11.714;2023-06-19T13:08:12;5.55;;;3.85;;
62574;SDS011;70119;45.638;11.714;2023-06-19T13:10:38;5.55;;;4.10;;
62574;SDS011;70119;45.638;11.714;2023-06-19T13:13:05;5.90;;;4.10;;
62574;SDS011;70119;45.638;11.714;2023-06-19T13:15:32;4.63;;;3.60;;
62574;SDS011;70119;45.638;11.714;2023-06-19T13:18:00;4.90;;;3.72;;
62574;SDS011;70119;45.638;11.714;2023-06-19T13:20:26;4.60;;;3.58;;
62574;SDS011;70119;45.638;11.714;2023-06-19T13:22:53;4.72;;;3.53;;
62574;SDS011;70119;45.638;11.714;2023-06-19T13:25:19;5.63;;;3.95;;
62574;SDS011;70119;45.638;11.714;2023-06-19T13:27:45;4.93;;;3.78;;
62574;SDS011;70119;45.638;11.714;2023-06-19T13:30:12;5.07;;;3.70;;
62574;SDS011;70119;45.638;11.714;2023-06-19T13:32:38;4.70;;;3.78;;
62574;SDS011;70119;45.638;11.714;2023-06-19T13:35:05;4.72;;;3.50;;
62574;SDS011;70119;45.638;11.714;2023-06-19T13:37:33;4.40;;;3.65;;
62574;SDS011;70119;45.638;11.714;2023-06-19T13:40:01;5.32;;;3.75;;
62574;SDS011;70119;45.638;11.714;2023-06-19T13:42:29;4.68;;;3.75;;
62574;SDS011;70119;45.638;11.714;2023-06-19T13:44:55;5.25;;;3.85;;
62574;SDS011;70119;45.638;11.714;2023-06-19T13:47:22;5.40;;;3.88;;
62574;SDS011;70119;45.638;11.714;2023-06-19T13:49:51;4.93;;;3.85;;
62574;SDS011;70119;45.638;11.714;2023-06-19T13:52:17;4.43;;;3.50;;
62574;SDS011;70119;45.638;11.714;2023-06-19T13:54:43;5.38;;;3.72;;
62574;SDS011;70119;45.638;11.714;2023-06-19T13:57:09;5.10;;;3.85;;
62574;SDS011;70119;45.638;11.714;2023-06-19T13:59:35;5.82;;;3.55;;
62574;SDS011;70119;45.638;11.714;2023-06-19T14:02:01;4.82;;;3.60;;
62574;SDS011;70119;45.638;11.714;2023-06-19T14:04:27;4.05;;;3.40;;
62574;SDS011;70119;45.638;11.714;2023-06-19T14:06:53;4.50;;;3.70;;
62574;SDS011;70119;45.638;11.714;2023-06-19T14:09:20;4.80;;;3.70;;
62574;SDS011;70119;45.638;11.714;2023-06-19T14:11:47;5.18;;;3.67;;
62574;SDS011;70119;45.638;11.714;2023-06-19T14:14:13;4.97;;;3.83;;
62574;SDS011;70119;45.638;11.714;2023-06-19T14:16:39;5.20;;;3.50;;
62574;SDS011;70119;45.638;11.714;2023-06-19T14:19:05;4.78;;;3.60;;
62574;SDS011;70119;45.638;11.714;2023-06-19T14:21:31;5.20;;;3.70;;
62574;SDS011;70119;45.638;11.714;2023-06-19T14:23:57;4.20;;;3.30;;
62574;SDS011;70119;45.638;11.714;2023-06-19T14:26:23;4.75;;;3.78;;
62574;SDS011;70119;45.638;11.714;2023-06-19T14:28:49;4.13;;;3.45;;
62574;SDS011;70119;45.638;11.714;2023-06-19T14:31:20;4.32;;;3.58;;
62574;SDS011;70119;45.638;11.714;2023-06-19T14:33:46;4.13;;;3.40;;
62574;SDS011;70119;45.638;11.714;2023-06-19T14:36:12;4.10;;;3.38;;